Time;durP1;ratioP1;P1;durP2;ratioP2;P2;SDS_P1;SDS_P2;PMS_P1;PMS_P2;Temp;Humidity;BMP_temperature;BMP_pressure;BME280_temperature;BME280_humidity;BME280_pressure;Samples;Min_cycle;Max_cycle;Signal;HPM_P1;HPM_P2
2022/10/14 00:01:17;;;;;;;34.28;17.40;;;;;;;9.18;100.00;101679.00;7367474;19;20014;-71
2022/10/14 00:03:48;;;;;;;39.35;19.20;;;;;;;9.25;100.00;101669.63;7362969;19;20431;-71
2022/10/14 00:06:21;;;;;;;50.15;21.42;;;;;;;9.33;100.00;101666.41;7362016;19;20014;-71
2022/10/14 00:08:53;;;;;;;39.33;18.45;;;;;;;9.35;100.00;101663.84;7361788;19;20098;-71
2022/10/14 00:11:26;;;;;;;42.10;20.73;;;;;;;9.45;100.00;101655.38;7369273;19;20011;-73
2022/10/14 00:13:57;;;;;;;40.38;20.17;;;;;;;9.51;100.00;101650.34;7366872;19;20118;-73
2022/10/14 00:16:28;;;;;;;45.28;23.27;;;;;;;9.59;100.00;101642.72;7366686;19;20011;-73
2022/10/14 00:18:59;;;;;;;48.25;23.52;;;;;;;9.64;100.00;101641.13;7360984;19;20026;-73
2022/10/14 00:21:30;;;;;;;47.50;23.85;;;;;;;9.69;100.00;101634.28;7364629;19;20015;-73
2022/10/14 00:24:03;;;;;;;49.17;22.75;;;;;;;9.73;100.00;101625.69;7360705;19;20006;-73
2022/10/14 00:26:35;;;;;;;46.72;21.60;;;;;;;9.78;100.00;101630.22;7362658;19;20018;-73
2022/10/14 00:29:06;;;;;;;50.83;23.52;;;;;;;9.84;100.00;101614.66;7367153;19;20018;-73
2022/10/14 00:31:37;;;;;;;48.35;23.75;;;;;;;9.88;100.00;101604.28;7363343;19;20010;-73
2022/10/14 00:34:06;;;;;;;57.30;25.15;;;;;;;9.90;100.00;101608.72;7363691;19;20018;-73
2022/10/14 00:36:36;;;;;;;54.33;25.33;;;;;;;9.97;100.00;101594.94;7365048;19;20010;-73
2022/10/14 00:39:08;;;;;;;51.45;24.30;;;;;;;10.01;100.00;101595.91;7366354;19;20015;-73
2022/10/14 00:41:38;;;;;;;42.35;22.10;;;;;;;10.05;100.00;101590.78;7360269;19;20021;-73
2022/10/14 00:44:29;;;;;;;56.28;26.25;;;;;;;10.10;100.00;101590.91;7363522;19;20010;-73
2022/10/14 00:46:59;;;;;;;55.88;26.00;;;;;;;10.18;100.00;101599.88;7363975;19;20090;-73
2022/10/14 00:49:32;;;;;;;57.70;27.13;;;;;;;10.22;100.00;101593.03;7363677;19;20007;-73
2022/10/14 00:52:04;;;;;;;53.67;24.90;;;;;;;10.25;100.00;101586.13;7366605;19;20377;-73
2022/10/14 00:54:41;;;;;;;57.92;25.48;;;;;;;10.29;100.00;101581.84;7361259;19;20070;-73
2022/10/14 00:57:12;;;;;;;54.25;26.30;;;;;;;10.33;100.00;101588.94;7359759;19;20014;-73
2022/10/14 00:59:42;;;;;;;54.83;25.83;;;;;;;10.36;100.00;101583.78;7364106;19;20337;-73
2022/10/14 01:02:12;;;;;;;64.07;28.65;;;;;;;10.46;100.00;101577.91;7363957;19;20238;-72
2022/10/14 01:04:45;;;;;;;60.65;27.02;;;;;;;10.47;100.00;101579.66;7365936;19;20464;-73
2022/10/14 01:07:25;;;;;;;52.45;26.17;;;;;;;10.50;100.00;101585.00;7363808;19;20029;-73
2022/10/14 01:10:06;;;;;;;55.78;25.45;;;;;;;10.52;100.00;101588.53;7350790;19;20014;-72
2022/10/14 01:12:49;;;;;;;58.72;25.23;;;;;;;10.55;100.00;101591.25;7360399;19;20007;-74
2022/10/14 01:15:28;;;;;;;55.70;25.20;;;;;;;10.60;100.00;101592.25;7360940;19;20075;-74
2022/10/14 01:18:10;;;;;;;71.88;29.55;;;;;;;10.67;100.00;101595.91;7356195;19;20434;-74
2022/10/14 01:20:57;;;;;;;55.80;25.77;;;;;;;10.68;100.00;101587.19;7361001;19;20043;-73
2022/10/14 01:23:53;;;;;;;65.28;28.13;;;;;;;10.75;100.00;101586.50;7359450;19;20018;-74
2022/10/14 01:26:53;;;;;;;57.10;25.92;;;;;;;10.76;100.00;101586.53;7355039;19;20113;-74
2022/10/14 01:29:45;;;;;;;52.42;24.23;;;;;;;10.76;100.00;101583.91;7364107;19;20018;-73
2022/10/14 01:32:19;;;;;;;54.35;25.63;;;;;;;10.78;100.00;101576.06;7362492;19;20014;-73
2022/10/14 01:34:54;;;;;;;61.25;28.13;;;;;;;10.80;100.00;101577.00;7360769;19;20281;-73
2022/10/14 01:37:29;;;;;;;61.83;28.35;;;;;;;10.81;100.00;101574.41;7360251;19;20047;-71
2022/10/14 01:40:03;;;;;;;59.92;27.05;;;;;;;10.83;100.00;101571.81;7359856;19;20010;-71
2022/10/14 01:42:37;;;;;;;64.00;30.40;;;;;;;10.86;100.00;101571.00;7358167;19;20042;-71
2022/10/14 01:45:15;;;;;;;56.00;26.40;;;;;;;10.84;100.00;101568.34;7363614;19;20007;-71
2022/10/14 01:47:48;;;;;;;50.67;24.80;;;;;;;10.86;100.00;101560.50;7361898;19;20018;-71
2022/10/14 01:50:19;;;;;;;54.03;26.13;;;;;;;10.89;100.00;101560.56;7361188;19;20014;-71
2022/10/14 01:52:54;;;;;;;59.35;26.65;;;;;;;10.94;100.00;101559.84;7355893;19;20019;-71
2022/10/14 01:55:29;;;;;;;62.90;29.83;;;;;;;10.94;100.00;101553.69;7354123;19;20006;-71
2022/10/14 01:58:00;;;;;;;62.08;27.92;;;;;;;10.95;100.00;101540.63;7354424;19;20014;-71
2022/10/14 02:00:32;;;;;;;57.30;27.02;;;;;;;10.98;100.00;101547.66;7356637;19;20607;-71
2022/10/14 02:03:01;;;;;;;58.50;25.63;;;;;;;10.99;100.00;101550.34;7352532;19;20014;-71
2022/10/14 02:05:38;;;;;;;59.85;27.75;;;;;;;11.01;100.00;101548.63;7355817;19;20971;-71
2022/10/14 02:08:15;;;;;;;64.95;29.00;;;;;;;11.04;100.00;101543.44;7354393;19;20596;-71
2022/10/14 02:11:06;;;;;;;62.40;27.90;;;;;;;11.08;100.00;101542.66;7356103;19;20011;-74
2022/10/14 02:13:52;;;;;;;68.43;29.92;;;;;;;11.11;100.00;101547.09;7352770;19;20013;-74
2022/10/14 02:16:32;;;;;;;67.00;29.77;;;;;;;11.11;100.00;101541.84;7349708;19;20710;-74
2022/10/14 02:19:10;;;;;;;69.53;31.40;;;;;;;11.12;100.00;101543.63;7356988;19;20666;-74
2022/10/14 02:21:43;;;;;;;73.07;30.60;;;;;;;11.14;100.00;101534.03;7353046;19;20562;-74
2022/10/14 02:24:20;;;;;;;80.82;33.97;;;;;;;11.19;100.00;101534.13;7357378;19;20021;-74
2022/10/14 02:26:53;;;;;;;76.95;32.60;;;;;;;11.19;100.00;101534.13;7360962;19;20017;-73
2022/10/14 02:29:25;;;;;;;78.78;33.10;;;;;;;11.20;100.00;101534.16;7356563;19;20006;-74
2022/10/14 02:31:58;;;;;;;75.13;34.25;;;;;;;11.25;100.00;101526.41;7357186;19;20578;-74
2022/10/14 02:34:28;;;;;;;67.95;31.35;;;;;;;11.26;100.00;101523.81;7356215;19;20069;-74
2022/10/14 02:37:00;;;;;;;73.32;32.70;;;;;;;11.28;100.00;101513.34;7351188;19;20007;-73
2022/10/14 02:39:34;;;;;;;80.43;33.97;;;;;;;11.27;100.00;101512.44;7354661;19;20773;-74
2022/10/14 02:42:04;;;;;;;70.00;30.90;;;;;;;11.27;100.00;101511.56;7354679;19;20049;-74
2022/10/14 02:44:33;;;;;;;70.50;31.52;;;;;;;11.27;100.00;101507.19;7351939;19;20425;-73
2022/10/14 02:47:06;;;;;;;75.03;33.42;;;;;;;11.28;100.00;101510.72;7357769;19;20141;-73
2022/10/14 02:49:35;;;;;;;86.50;33.35;;;;;;;11.33;100.00;101506.44;7359604;19;20127;-73
2022/10/14 02:52:05;;;;;;;86.53;34.70;;;;;;;11.38;100.00;101502.16;7356859;19;20010;-73
2022/10/14 02:54:35;;;;;;;84.22;33.35;;;;;;;11.37;100.00;101498.66;7356519;19;20021;-73
2022/10/14 02:57:05;;;;;;;88.55;35.47;;;;;;;11.39;100.00;101494.31;7353273;19;20022;-74
2022/10/14 02:59:34;;;;;;;95.80;33.13;;;;;;;11.42;100.00;101493.50;7352649;19;20018;-73
2022/10/14 03:02:07;;;;;;;91.55;34.15;;;;;;;11.44;100.00;101495.25;7352562;19;20013;-71
2022/10/14 03:04:37;;;;;;;88.78;34.92;;;;;;;11.44;100.00;101486.50;7353305;19;20086;-73
2022/10/14 03:07:07;;;;;;;81.78;32.15;;;;;;;11.43;100.00;101490.91;7355524;19;20022;-71
2022/10/14 03:09:37;;;;;;;98.03;35.58;;;;;;;11.50;100.00;101475.22;7354422;19;20321;-71
2022/10/14 03:12:07;;;;;;;92.72;34.55;;;;;;;11.48;100.00;101470.84;7353618;19;20014;-71
2022/10/14 03:14:36;;;;;;;104.72;38.25;;;;;;;11.56;100.00;101473.59;7352197;19;20323;-71
2022/10/14 03:17:09;;;;;;;104.22;38.92;;;;;;;11.61;100.00;101461.44;7356731;19;20014;-71
2022/10/14 03:19:39;;;;;;;100.68;38.53;;;;;;;11.62;100.00;101457.06;7352956;19;20006;-71
2022/10/14 03:22:08;;;;;;;104.10;36.35;;;;;;;11.62;100.00;101457.06;7363394;19;20015;-71
2022/10/14 03:24:38;;;;;;;103.60;35.63;;;;;;;11.64;100.00;101451.00;7362344;19;20014;-71
2022/10/14 03:27:08;;;;;;;100.90;35.53;;;;;;;11.66;100.00;101451.91;7361822;19;20098;-71
2022/10/14 03:29:37;;;;;;;100.97;36.38;;;;;;;11.65;100.00;101451.88;7366075;19;20915;-71
2022/10/14 03:32:10;;;;;;;95.97;35.28;;;;;;;11.63;100.00;101459.72;7366795;19;20010;-72
2022/10/14 03:34:39;;;;;;;107.57;36.20;;;;;;;11.65;100.00;101451.88;7367477;19;20030;-71
2022/10/14 03:37:09;;;;;;;102.50;35.55;;;;;;;11.66;100.00;101448.38;7362009;19;20011;-71
2022/10/14 03:39:39;;;;;;;95.63;34.78;;;;;;;11.67;100.00;101444.91;7363982;19;20118;-70
2022/10/14 03:42:08;;;;;;;105.32;36.20;;;;;;;11.73;100.00;101445.03;7364610;19;20010;-70
2022/10/14 03:44:38;;;;;;;103.80;35.33;;;;;;;11.74;100.00;101431.91;7364837;19;20080;-70
2022/10/14 03:47:10;;;;;;;100.88;35.00;;;;;;;11.73;100.00;101432.78;7363415;19;20018;-70
2022/10/14 03:49:40;;;;;;;102.65;38.78;;;;;;;11.78;100.00;101423.25;7363217;19;20014;-70
2022/10/14 03:52:10;;;;;;;98.78;35.35;;;;;;;11.76;100.00;101419.69;7360798;19;20011;-70
2022/10/14 03:54:39;;;;;;;91.90;35.65;;;;;;;11.76;100.00;101424.94;7360069;19;20007;-70
2022/10/14 03:57:09;;;;;;;99.63;36.13;;;;;;;11.79;100.00;101421.50;7355409;19;20025;-70
2022/10/14 03:59:39;;;;;;;102.65;34.25;;;;;;;11.80;100.00;101410.16;7365842;19;20011;-70
2022/10/14 04:02:11;;;;;;;104.80;35.13;;;;;;;11.82;100.00;101413.69;7360255;19;20051;-70
2022/10/14 04:04:41;;;;;;;108.00;37.85;;;;;;;11.85;100.00;101418.09;7363512;19;20016;-70
2022/10/14 04:07:11;;;;;;;97.78;33.28;;;;;;;11.82;100.00;101416.31;7365939;19;20404;-70
2022/10/14 04:09:40;;;;;;;90.57;33.47;;;;;;;11.83;100.00;101410.19;7362843;19;20086;-70
2022/10/14 04:12:11;;;;;;;110.25;38.28;;;;;;;11.88;100.00;101408.53;7365698;19;21441;-70
2022/10/14 04:14:41;;;;;;;114.03;36.90;;;;;;;11.88;100.00;101405.91;7362018;19;20006;-70
2022/10/14 04:17:13;;;;;;;90.82;32.67;;;;;;;11.91;100.00;101411.22;7363104;19;20007;-70
2022/10/14 04:19:43;;;;;;;103.00;35.20;;;;;;;11.89;100.00;101404.16;7361351;19;20046;-70
2022/10/14 04:22:12;;;;;;;97.22;32.97;;;;;;;11.90;100.00;101406.81;7359589;19;20050;-70
2022/10/14 04:24:42;;;;;;;94.15;31.83;;;;;;;11.95;100.00;101404.25;7359401;19;20029;-70
2022/10/14 04:27:12;;;;;;;102.93;34.45;;;;;;;11.95;100.00;101405.16;7361680;19;20138;-70
2022/10/14 04:29:42;;;;;;;93.15;32.55;;;;;;;11.97;100.00;101405.16;7352364;19;20360;-70
2022/10/14 04:32:14;;;;;;;94.68;32.92;;;;;;;11.95;100.00;101399.88;7357067;19;20337;-69
2022/10/14 04:34:44;;;;;;;89.30;31.92;;;;;;;11.97;100.00;101387.66;7362777;19;20154;-70
2022/10/14 04:37:13;;;;;;;84.18;30.60;;;;;;;11.98;100.00;101394.69;7356722;19;20017;-69
2022/10/14 04:39:43;;;;;;;82.57;30.92;;;;;;;12.01;100.00;101378.06;7359409;19;20030;-69
2022/10/14 04:42:12;;;;;;;80.93;29.27;;;;;;;12.04;100.00;101386.00;7358512;19;20021;-69
2022/10/14 04:44:42;;;;;;;85.30;29.48;;;;;;;12.01;100.00;101371.06;7361636;19;21036;-69
2022/10/14 04:47:14;;;;;;;77.75;26.42;;;;;;;12.03;100.00;101371.09;7361680;19;20033;-68
2022/10/14 04:49:44;;;;;;;78.72;29.05;;;;;;;12.00;100.00;101378.94;7356572;19;20010;-69
2022/10/14 04:52:14;;;;;;;72.65;29.23;;;;;;;11.98;100.00;101368.41;7354446;19;20017;-69
2022/10/14 04:54:43;;;;;;;81.20;27.75;;;;;;;11.99;100.00;101364.91;7360796;19;20015;-69
2022/10/14 04:57:13;;;;;;;72.78;28.40;;;;;;;11.99;100.00;101366.66;7359955;19;20007;-73
2022/10/14 04:59:43;;;;;;;69.80;25.20;;;;;;;11.99;100.00;101354.38;7356354;19;20072;-72
2022/10/14 05:02:15;;;;;;;63.58;23.75;;;;;;;11.99;100.00;101350.88;7362984;19;20015;-70
2022/10/14 05:04:45;;;;;;;59.70;22.52;;;;;;;12.01;100.00;101350.03;7356790;19;20002;-72
2022/10/14 05:07:15;;;;;;;57.25;23.02;;;;;;;12.05;100.00;101357.13;7358513;19;20033;-70
2022/10/14 05:09:44;;;;;;;62.65;23.77;;;;;;;12.05;100.00;101356.22;7357154;19;20006;-73
2022/10/14 05:12:19;;;;;;;57.70;21.92;;;;;;;12.02;100.00;101349.19;7358875;19;20575;-71
2022/10/14 05:14:49;;;;;;;51.63;19.92;;;;;;;12.05;100.00;101346.59;7359426;19;20018;-70
2022/10/14 05:17:21;;;;;;;50.25;19.63;;;;;;;12.06;100.00;101343.13;7355481;19;20010;-71
2022/10/14 05:19:51;;;;;;;52.78;19.85;;;;;;;12.07;100.00;101336.09;7359874;19;20026;-71
2022/10/14 05:22:21;;;;;;;45.13;18.08;;;;;;;12.18;100.00;101338.91;7355854;19;20024;-71
2022/10/14 05:24:52;;;;;;;47.75;17.83;;;;;;;12.17;100.00;101327.50;7357143;19;20015;-72
2022/10/14 05:27:22;;;;;;;43.40;19.85;;;;;;;12.14;100.00;101331.81;7357894;19;20011;-71
2022/10/14 05:29:52;;;;;;;46.78;18.20;;;;;;;12.15;100.00;101326.59;7357725;19;20014;-71
2022/10/14 05:32:28;;;;;;;43.70;16.73;;;;;;;12.17;100.00;101321.34;7355359;19;20982;-72
2022/10/14 05:34:58;;;;;;;42.20;17.13;;;;;;;12.15;100.00;101317.81;7360129;19;20078;-71
2022/10/14 05:37:28;;;;;;;41.10;17.02;;;;;;;12.15;100.00;101315.19;7356903;19;20014;-72
2022/10/14 05:39:58;;;;;;;42.60;17.45;;;;;;;12.13;100.00;101311.66;7357386;19;20010;-70
2022/10/14 05:42:28;;;;;;;39.78;16.48;;;;;;;12.15;100.00;101312.56;7351547;19;20021;-70
2022/10/14 05:44:58;;;;;;;41.58;17.52;;;;;;;12.16;100.00;101306.44;7360836;19;20086;-70
2022/10/14 05:47:31;;;;;;;37.47;16.63;;;;;;;12.17;100.00;101305.56;7359529;19;20055;-70
2022/10/14 05:50:02;;;;;;;39.78;16.00;;;;;;;12.17;100.00;101300.31;7351765;19;20021;-71
2022/10/14 05:52:33;;;;;;;35.60;15.63;;;;;;;12.18;100.00;101307.34;7350179;19;20031;-71
2022/10/14 05:55:03;;;;;;;36.80;15.30;;;;;;;12.17;100.00;101311.72;7356313;19;20035;-71
2022/10/14 05:57:33;;;;;;;39.55;17.52;;;;;;;12.20;100.00;101303.00;7355849;19;20018;-70
2022/10/14 06:00:03;;;;;;;34.47;15.82;;;;;;;12.20;100.00;101300.38;7360994;19;20018;-70
2022/10/14 06:02:35;;;;;;;40.88;17.05;;;;;;;12.23;100.00;101305.66;7360474;19;20017;-69
2022/10/14 06:05:05;;;;;;;39.03;14.80;;;;;;;12.23;100.00;101298.66;7359381;19;20274;-70
2022/10/14 06:07:37;;;;;;;41.22;16.77;;;;;;;12.27;100.00;101296.97;7360871;19;20014;-70
2022/10/14 06:10:09;;;;;;;35.83;16.92;;;;;;;12.28;100.00;101293.47;7355604;19;20018;-70
2022/10/14 06:12:39;;;;;;;38.65;15.43;;;;;;;12.27;100.00;101296.97;7356129;19;20029;-70
2022/10/14 06:15:10;;;;;;;36.78;15.98;;;;;;;12.36;100.00;101302.34;7360464;19;20010;-70
2022/10/14 06:17:42;;;;;;;39.72;17.02;;;;;;;12.37;100.00;101283.94;7356679;19;20018;-70
2022/10/14 06:20:12;;;;;;;35.72;17.20;;;;;;;12.34;100.00;101297.06;7359788;19;20011;-70
2022/10/14 06:22:42;;;;;;;40.55;17.48;;;;;;;12.33;100.00;101287.41;7359071;19;20015;-71
2022/10/14 06:25:12;;;;;;;43.33;18.00;;;;;;;12.36;100.00;101286.56;7359702;19;20006;-71
2022/10/14 06:27:41;;;;;;;40.58;17.30;;;;;;;12.35;100.00;101287.41;7360759;19;20011;-72
2022/10/14 06:30:13;;;;;;;45.28;17.88;;;;;;;12.37;100.00;101283.94;7357094;19;20017;-71
2022/10/14 06:32:45;;;;;;;46.85;16.48;;;;;;;12.38;100.00;101284.84;7356876;19;20007;-72
2022/10/14 06:35:15;;;;;;;43.20;18.60;;;;;;;12.41;100.00;101292.75;7360127;19;20014;-71
2022/10/14 06:37:46;;;;;;;44.50;18.77;;;;;;;12.41;100.00;101285.75;7359896;19;20018;-71
2022/10/14 06:40:16;;;;;;;43.67;17.17;;;;;;;12.43;100.00;101275.25;7350893;19;20014;-72
2022/10/14 06:42:49;;;;;;;45.92;17.77;;;;;;;12.45;100.00;101270.88;7360964;19;20007;-72
2022/10/14 06:45:18;;;;;;;50.50;20.08;;;;;;;12.49;100.00;101277.94;7360434;19;20050;-72
2022/10/14 06:47:51;;;;;;;48.83;21.08;;;;;;;12.51;100.00;101278.81;7359136;19;20014;-70
2022/10/14 06:50:20;;;;;;;50.10;19.35;;;;;;;12.49;100.00;101271.78;7360641;19;20014;-70
2022/10/14 06:52:50;;;;;;;50.50;18.23;;;;;;;12.49;100.00;101272.66;7353161;19;20018;-70
2022/10/14 06:55:20;;;;;;;45.53;18.80;;;;;;;12.51;100.00;101270.06;7355058;19;20014;-70
2022/10/14 06:57:49;;;;;;;46.05;18.08;;;;;;;12.57;100.00;101265.75;7353320;19;20364;-70
2022/10/14 07:00:19;;;;;;;48.22;18.85;;;;;;;12.58;100.00;101261.38;7355681;19;20022;-70
2022/10/14 07:02:52;;;;;;;45.33;19.35;;;;;;;12.57;100.00;101260.50;7350084;19;20511;-70
2022/10/14 07:05:22;;;;;;;43.88;17.67;;;;;;;12.60;100.00;101260.53;7349485;19;20006;-71
2022/10/14 07:07:51;;;;;;;47.95;19.67;;;;;;;12.62;100.00;101266.69;7351192;19;20014;-71
2022/10/14 07:10:21;;;;;;;47.63;18.73;;;;;;;12.65;100.00;101257.94;7351617;19;20601;-72
2022/10/14 07:12:55;;;;;;;49.45;19.35;;;;;;;12.64;100.00;101264.94;7354058;19;20024;-73
2022/10/14 07:15:24;;;;;;;38.33;16.58;;;;;;;12.63;100.00;101260.56;7354501;19;20573;-72
2022/10/14 07:17:57;;;;;;;43.40;18.10;;;;;;;12.65;100.00;101258.81;7349380;19;20018;-73
2022/10/14 07:20:26;;;;;;;42.38;16.88;;;;;;;12.70;100.00;101262.41;7352828;19;20041;-73
2022/10/14 07:22:57;;;;;;;43.15;16.20;;;;;;;12.72;100.00;101257.16;7353350;19;20078;-73
2022/10/14 07:25:27;;;;;;;34.67;15.35;;;;;;;12.72;100.00;101260.66;7355503;19;20015;-72
2022/10/14 07:27:56;;;;;;;38.92;14.88;;;;;;;12.71;100.00;101261.53;7352644;19;20482;-73
2022/10/14 07:30:26;;;;;;;38.30;16.85;;;;;;;12.73;100.00;101265.06;7351285;19;20081;-73
2022/10/14 07:33:01;;;;;;;35.83;15.43;;;;;;;12.82;100.00;101258.13;7353801;19;20086;-72
2022/10/14 07:35:31;;;;;;;46.17;17.10;;;;;;;12.78;100.00;101266.00;7353382;19;20007;-72
2022/10/14 07:38:01;;;;;;;42.80;15.95;;;;;;;12.80;100.00;101260.75;7353535;19;20022;-72
2022/10/14 07:40:32;;;;;;;44.40;17.25;;;;;;;12.82;100.00;101266.03;7350874;19;20752;-72
2022/10/14 07:43:02;;;;;;;44.63;16.15;;;;;;;12.88;100.00;101271.34;7353406;19;20010;-73
2022/10/14 07:45:34;;;;;;;38.25;15.60;;;;;;;12.86;100.00;101271.34;7350448;19;20006;-72
2022/10/14 07:48:07;;;;;;;41.03;18.08;;;;;;;12.86;100.00;101260.81;7354137;19;20018;-71
2022/10/14 07:50:36;;;;;;;40.22;17.55;;;;;;;12.88;100.00;101255.56;7349802;19;20011;-70
2022/10/14 07:53:06;;;;;;;44.38;17.80;;;;;;;12.88;100.00;101260.81;7343077;19;20493;-71
2022/10/14 07:55:50;;;;;;;46.75;19.02;;;;;;;12.89;100.00;101262.59;7353465;19;20027;-70
2022/10/14 07:58:22;;;;;;;46.08;18.30;;;;;;;12.90;100.00;101259.97;7348684;19;20017;-70
2022/10/14 08:00:52;;;;;;;46.97;18.40;;;;;;;12.93;100.00;101261.75;7348429;19;20459;-70
2022/10/14 08:03:26;;;;;;;49.55;19.23;;;;;;;12.96;100.00;101259.16;7354360;19;20453;-70
2022/10/14 08:06:03;;;;;;;55.42;21.80;;;;;;;12.97;100.00;101255.66;7354021;19;20014;-70
2022/10/14 08:08:33;;;;;;;53.30;20.63;;;;;;;12.98;100.00;101254.78;7357213;19;20017;-71
2022/10/14 08:11:04;;;;;;;55.95;21.95;;;;;;;13.00;100.00;101256.56;7358853;19;20019;-71
2022/10/14 08:13:35;;;;;;;45.10;19.25;;;;;;;13.04;100.00;101263.63;7360617;19;20015;-71
2022/10/14 08:16:05;;;;;;;54.47;21.30;;;;;;;13.05;100.00;101259.25;7356676;19;20018;-71
2022/10/14 08:18:37;;;;;;;54.45;19.38;;;;;;;13.07;100.00;101257.53;7355262;19;20094;-71
2022/10/14 08:21:07;;;;;;;47.65;19.13;;;;;;;13.10;100.00;101247.91;7357300;19;20566;-71
2022/10/14 08:23:37;;;;;;;51.72;19.40;;;;;;;13.09;100.00;101251.41;7360762;19;20030;-71
2022/10/14 08:26:17;;;;;;;53.83;20.23;;;;;;;13.13;100.00;101254.94;7365861;19;21959;-71
2022/10/14 08:28:46;;;;;;;48.17;20.08;;;;;;;13.16;100.00;101256.72;7369354;19;20006;-71
2022/10/14 08:31:17;;;;;;;55.25;20.20;;;;;;;13.15;100.00;101250.56;7362954;19;20031;-71
2022/10/14 08:33:50;;;;;;;49.72;20.17;;;;;;;13.18;100.00;101261.16;7363382;19;20003;-71
2022/10/14 08:36:21;;;;;;;50.97;21.40;;;;;;;13.18;100.00;101260.28;7362180;19;20006;-71
2022/10/14 08:38:53;;;;;;;52.67;20.00;;;;;;;13.18;100.00;101255.03;7358361;19;20015;-70
2022/10/14 08:41:45;;;;;;;50.78;20.02;;;;;;;13.22;100.00;101257.69;7366065;19;20007;-71
2022/10/14 08:44:21;;;;;;;51.50;19.52;;;;;;;13.24;100.00;101252.44;7378743;19;20010;-71
2022/10/14 08:46:53;;;;;;;50.95;19.73;;;;;;;13.27;100.00;101253.34;7379325;19;20015;-71
2022/10/14 08:49:31;;;;;;;39.92;18.13;;;;;;;13.28;100.00;101249.84;7379245;19;20506;-71
2022/10/14 08:52:04;;;;;;;51.03;20.23;;;;;;;13.28;100.00;101241.94;7364120;19;20010;-71
2022/10/14 08:54:39;;;;;;;50.17;17.85;;;;;;;13.33;100.00;101244.63;7357186;19;20010;-71
2022/10/14 08:57:16;;;;;;;44.78;19.40;;;;;;;13.34;100.00;101241.13;7357191;19;20013;-71
2022/10/14 08:59:46;;;;;;;49.78;17.92;;;;;;;13.35;100.00;101243.75;7359915;19;20268;-71
2022/10/14 09:02:25;;;;;;;43.83;17.27;;;;;;;13.38;100.00;101235.00;7354580;19;20014;-71
2022/10/14 09:05:01;;;;;;;41.92;18.27;;;;;;;13.40;100.00;101235.91;7357670;19;20049;-71
2022/10/14 09:07:33;;;;;;;38.55;16.30;;;;;;;13.41;100.00;101238.53;7360594;19;20022;-72
2022/10/14 09:10:07;;;;;;;38.20;16.38;;;;;;;13.47;100.00;101239.47;7360660;19;20109;-72
2022/10/14 09:12:38;;;;;;;45.25;19.05;;;;;;;13.50;100.00;101228.94;7356428;19;20462;-72
2022/10/14 09:15:19;;;;;;;46.78;17.50;;;;;;;13.54;100.00;101228.06;7358692;19;20018;-72
2022/10/14 09:17:55;;;;;;;39.10;16.10;;;;;;;13.61;100.00;101224.59;7350681;19;20015;-71
2022/10/14 09:20:27;;;;;;;38.88;17.10;;;;;;;13.61;100.00;101219.34;7361619;19;20443;-71
2022/10/14 09:23:07;;;;;;;40.20;17.52;;;;;;;13.61;100.00;101222.84;7356149;19;20593;-71
2022/10/14 09:25:40;;;;;;;38.90;17.33;;;;;;;13.67;100.00;101222.00;7359107;19;20011;-70
2022/10/14 09:28:11;;;;;;;39.72;17.45;;;;;;;13.68;100.00;101216.75;7359437;19;20062;-70
2022/10/14 09:30:41;;;;;;;41.47;17.88;;;;;;;13.67;100.00;101232.56;7359262;19;20014;-70
2022/10/14 09:33:19;;;;;;;42.28;16.38;;;;;;;13.74;100.00;101223.81;7358657;19;20101;-70
2022/10/14 09:35:51;;;;;;;41.42;17.27;;;;;;;13.71;100.00;101221.16;7355540;19;20014;-70
2022/10/14 09:38:22;;;;;;;36.90;16.38;;;;;;;13.73;100.00;101225.56;7365179;19;20022;-70
2022/10/14 09:40:56;;;;;;;40.55;16.65;;;;;;;13.74;100.00;101223.81;7375082;19;20014;-72
2022/10/14 09:43:26;;;;;;;42.03;17.98;;;;;;;13.73;100.00;101219.41;7378399;19;20018;-70
2022/10/14 09:45:59;;;;;;;34.25;15.20;;;;;;;13.72;100.00;101217.66;7376383;19;20015;-70
2022/10/14 09:48:36;;;;;;;;;;;;;;;13.72;100.00;101223.81;7367956;19;20011;-70
2022/10/14 09:51:12;;;;;;;38.10;15.13;;;;;;;13.77;100.00;101215.03;7370791;19;19906;-70
2022/10/14 09:53:47;;;;;;;33.63;15.48;;;;;;;13.77;100.00;101215.94;7365894;19;20066;-70
2022/10/14 09:56:17;;;;;;;36.10;15.63;;;;;;;13.75;100.00;101220.31;7373990;19;20007;-70
2022/10/14 09:58:52;;;;;;;32.75;15.10;;;;;;;13.74;100.00;101222.06;7371784;19;20710;-70
2022/10/14 10:01:24;;;;;;;29.35;14.23;;;;;;;13.75;100.00;101217.66;7372773;19;20081;-70
2022/10/14 10:03:55;;;;;;;35.45;15.27;;;;;;;13.73;100.00;101224.69;7371570;19;20471;-70
2022/10/14 10:06:28;;;;;;;29.75;14.70;;;;;;;13.72;100.00;101217.66;7374591;19;20436;-70
2022/10/14 10:09:00;;;;;;;30.27;15.27;;;;;;;13.72;100.00;101217.66;7379888;19;20035;-70
2022/10/14 10:11:32;;;;;;;28.67;13.95;;;;;;;13.68;100.00;101226.41;7378866;19;20020;-70
2022/10/14 10:14:18;;;;;;;30.35;13.90;;;;;;;13.69;100.00;101218.50;7380178;19;20014;-70
2022/10/14 10:16:47;;;;;;;27.60;14.27;;;;;;;13.69;100.00;101215.88;7379173;19;20014;-70
2022/10/14 10:19:29;;;;;;;29.80;14.20;;;;;;;13.71;100.00;101213.25;7377841;19;20011;-69
2022/10/14 10:22:20;;;;;;;26.92;13.18;;;;;;;13.73;100.00;101215.03;7373833;19;20028;-69
2022/10/14 10:24:52;;;;;;;25.40;12.52;;;;;;;13.73;100.00;101214.16;7370694;19;20010;-69
2022/10/14 10:27:26;;;;;;;25.42;12.73;;;;;;;13.72;100.00;101202.72;7371722;19;20014;-69
2022/10/14 10:29:57;;;;;;;27.58;12.65;;;;;;;13.75;100.00;101207.13;7372814;19;20018;-71
2022/10/14 10:32:35;;;;;;;24.98;12.07;;;;;;;13.75;100.00;101212.41;7373989;19;20483;-71
2022/10/14 10:35:24;;;;;;;23.33;11.98;;;;;;;13.79;100.00;101200.13;7373120;19;20043;-69
2022/10/14 10:38:05;;;;;;;23.35;11.85;;;;;;;13.80;100.00;101189.59;7376031;19;20042;-72
2022/10/14 10:40:43;;;;;;;22.52;11.15;;;;;;;13.83;100.00;101202.78;7373802;19;20010;-72
2022/10/14 10:43:38;;;;;;;22.73;11.95;;;;;;;13.81;100.00;101196.63;7371617;19;20038;-70
2022/10/14 10:46:25;;;;;;;22.60;11.88;;;;;;;13.83;100.00;101191.34;7370687;19;20017;-71
2022/10/14 10:49:01;;;;;;;20.73;10.82;;;;;;;13.88;100.00;101189.63;7371562;19;20033;-70
2022/10/14 10:51:39;;;;;;;24.55;12.15;;;;;;;13.90;100.00;101183.50;7370970;19;20015;-70
2022/10/14 10:54:21;;;;;;;24.65;11.20;;;;;;;13.96;100.00;101188.78;7369323;19;20105;-70
2022/10/14 10:56:56;;;;;;;22.38;12.07;;;;;;;13.99;100.00;101191.44;7372609;19;20014;-70
2022/10/14 10:59:39;;;;;;;25.90;12.05;;;;;;;13.98;100.00;101191.44;7371808;19;20074;-70
2022/10/14 11:02:44;;;;;;;25.17;12.68;;;;;;;13.96;100.00;101191.44;7372106;19;20022;-70
2022/10/14 11:05:20;;;;;;;23.17;12.10;;;;;;;13.96;100.00;101180.88;7370754;19;20014;-70
2022/10/14 11:13:44;;;;;;;26.80;12.68;;;;;;;14.04;100.00;101173.88;7369472;19;20606;-70
2022/10/14 11:16:19;;;;;;;26.77;13.25;;;;;;;14.01;100.00;101168.59;7372434;19;20002;-71
2022/10/14 11:18:52;;;;;;;32.03;14.93;;;;;;;14.07;100.00;101173.03;7364312;19;20434;-71
2022/10/14 11:21:31;;;;;;;29.40;14.18;;;;;;;14.11;100.00;101166.00;7374918;19;20937;-72
2022/10/14 11:24:10;;;;;;;32.83;15.77;;;;;;;14.05;100.00;101167.75;7377755;19;20066;-71
2022/10/14 11:27:12;;;;;;;34.88;16.50;;;;;;;14.12;100.00;101155.47;7377175;19;20017;-71
2022/10/14 11:30:05;;;;;;;32.20;15.35;;;;;;;14.08;100.00;101149.28;7377164;19;20374;-72
2022/10/14 11:32:47;;;;;;;29.42;14.15;;;;;;;14.07;100.00;101146.66;7376500;19;20010;-72
2022/10/14 11:35:32;;;;;;;26.98;12.75;;;;;;;14.01;100.00;101142.22;7371898;19;20340;-71